Time;durP1;ratioP1;P1;durP2;ratioP2;P2;SDS_P1;SDS_P2;PMS_P1;PMS_P2;Temp;Humidity;BMP_temperature;BMP_pressure;BME280_temperature;BME280_humidity;BME280_pressure;Samples;Min_cycle;Max_cycle;Signal;HPM_P1;HPM_P2
2022/04/21 03:56:52;;;;;;;19.67;15.52;;;;;;;5.83;60.72;100219.97;5601283;31;208494;-58
2022/04/21 03:59:54;;;;;;;21.92;15.57;;;;;;;5.69;60.81;100221.41;5583092;31;33368;-58
2022/04/21 04:02:56;;;;;;;19.42;15.63;;;;;;;5.67;60.74;100221.69;5583301;31;34143;-58
2022/04/21 04:05:59;;;;;;;19.75;16.50;;;;;;;5.77;60.96;100219.13;5583119;32;34326;-58
2022/04/21 04:12:23;;;;;;;21.77;15.90;;;;;;;5.73;61.03;100223.34;5583379;31;33743;-58
2022/04/21 04:15:25;;;;;;;21.92;16.20;;;;;;;5.89;60.81;100240.22;5583093;32;34219;-58
2022/04/21 04:18:29;;;;;;;22.85;16.25;;;;;;;5.94;60.52;100235.00;5583174;31;33586;-58
2022/04/21 04:21:31;;;;;;;20.75;16.62;;;;;;;5.97;59.84;100237.16;5583134;31;33686;-58
2022/04/21 04:24:34;;;;;;;19.60;14.95;;;;;;;5.96;59.76;100242.72;5582987;32;33734;-57
2022/04/21 04:27:36;;;;;;;22.42;16.65;;;;;;;5.99;60.02;100235.03;5574065;31;33657;-58
2022/04/21 04:30:40;;;;;;;23.80;16.75;;;;;;;6.15;59.59;100235.16;5563418;32;34327;-58
2022/04/21 04:33:42;;;;;;;22.37;17.00;;;;;;;6.24;59.02;100237.09;5563390;32;33716;-57
2022/04/21 04:36:45;;;;;;;24.25;17.20;;;;;;;6.40;58.66;100238.03;5563246;32;33653;-58
2022/04/21 04:39:47;;;;;;;21.00;17.90;;;;;;;6.37;58.79;100243.06;5562999;32;33713;-58
2022/04/21 04:42:50;;;;;;;23.05;18.30;;;;;;;6.30;58.64;100243.28;5563152;32;33622;-58
2022/04/21 04:49:13;;;;;;;21.45;17.35;;;;;;;6.79;57.05;100254.53;5563516;32;34371;-58
2022/04/21 04:52:15;;;;;;;22.70;17.55;;;;;;;6.73;57.61;100257.41;5563361;32;33821;-58
2022/04/21 04:55:18;;;;;;;26.10;17.60;;;;;;;6.63;58.12;100252.03;5563008;32;33550;-58
2022/04/21 04:58:20;;;;;;;22.60;17.65;;;;;;;6.65;57.99;100252.56;5562456;32;33742;-58
2022/04/21 05:01:45;;;;;;;25.00;18.15;;;;;;;6.97;56.68;100242.62;5562904;32;34758;-57
2022/04/21 05:04:47;;;;;;;24.60;18.33;;;;;;;6.71;57.37;100252.31;5563297;32;34196;-58
2022/04/21 05:07:50;;;;;;;26.23;19.77;;;;;;;6.72;57.86;100261.94;5551647;32;33695;-58
2022/04/21 05:10:53;;;;;;;22.80;17.65;;;;;;;6.79;58.79;100256.38;5555114;32;33899;-58
2022/04/21 05:13:55;;;;;;;24.80;18.33;;;;;;;6.88;57.82;100262.81;5569279;32;33415;-58
2022/04/21 05:16:58;;;;;;;28.35;19.00;;;;;;;7.02;57.78;100261.31;5568779;32;34423;-58
2022/04/21 05:20:00;;;;;;;27.90;19.15;;;;;;;7.17;57.40;100254.44;5558418;32;34345;-58
2022/04/21 05:23:10;;;;;;;26.33;18.70;;;;;;;7.33;57.06;100261.44;5556106;32;33904;-58
2022/04/21 05:26:14;;;;;;;24.30;19.17;;;;;;;7.54;56.58;100256.97;5569080;32;33964;-58
2022/04/21 05:32:40;;;;;;;29.00;19.92;;;;;;;7.85;54.64;100246.38;5567495;32;34906;-58
2022/04/21 05:35:43;;;;;;;26.35;19.67;;;;;;;7.93;55.15;100251.97;5568823;32;33754;-58
2022/04/21 05:38:46;;;;;;;34.70;21.00;;;;;;;7.92;54.92;100247.69;5568781;32;33703;-59
2022/04/21 05:41:52;;;;;;;29.50;21.12;;;;;;;7.99;54.61;100250.13;5569064;32;33899;-58
2022/04/21 05:44:54;;;;;;;24.92;20.20;;;;;;;8.15;54.25;100256.28;5568889;32;33614;-58
2022/04/21 05:47:57;;;;;;;26.83;21.33;;;;;;;8.47;53.94;100243.44;5568670;32;33373;-58
2022/04/21 05:51:00;;;;;;;27.30;22.23;;;;;;;8.67;53.61;100242.59;5568129;32;33609;-58
2022/04/21 05:54:05;;;;;;;27.33;22.27;;;;;;;8.70;53.40;100236.72;5568434;32;34319;-58
2022/04/21 05:57:09;;;;;;;24.90;21.10;;;;;;;8.91;51.66;100240.16;5567506;32;33545;-58
2022/04/21 06:00:12;;;;;;;28.15;22.23;;;;;;;9.15;52.01;100240.34;5568375;32;33648;-58
2022/04/21 06:03:14;;;;;;;33.35;21.62;;;;;;;9.22;50.45;100237.34;5567580;32;33879;-59
2022/04/21 06:06:17;;;;;;;27.83;22.37;;;;;;;9.31;50.55;100237.59;5567039;32;33204;-58
2022/04/21 06:09:19;;;;;;;28.25;22.85;;;;;;;9.44;51.33;100239.69;5568379;32;34364;-59
2022/04/21 06:12:25;;;;;;;27.30;22.45;;;;;;;9.48;50.35;100242.59;5567117;32;33622;-59
2022/04/21 06:15:31;;;;;;;27.35;21.87;;;;;;;9.48;50.57;100237.25;5552783;32;34447;-57
2022/04/21 06:18:36;;;;;;;30.35;20.27;;;;;;;9.67;50.10;100235.53;5554300;32;33699;-58
2022/04/21 06:21:39;;;;;;;28.23;21.10;;;;;;;10.03;49.21;100236.09;5567681;32;33720;-58
2022/04/21 06:24:42;;;;;;;26.37;21.08;;;;;;;10.17;49.27;100235.44;5559552;32;34368;-58
2022/04/21 06:27:44;;;;;;;25.02;19.95;;;;;;;10.42;47.56;100237.13;5557974;32;34020;-58
2022/04/21 06:30:46;;;;;;;25.27;20.40;;;;;;;10.42;48.20;100221.84;5567388;32;33583;-58
2022/04/21 06:33:51;;;;;;;29.58;21.77;;;;;;;10.47;48.17;100223.69;5568449;32;34367;-58
2022/04/21 06:36:53;;;;;;;29.30;22.52;;;;;;;10.37;47.67;100224.56;5567357;32;34205;-57
2022/04/21 06:39:56;;;;;;;34.45;24.17;;;;;;;10.49;48.79;100227.66;5567959;32;33231;-58
2022/04/21 06:43:02;;;;;;;28.65;22.75;;;;;;;10.60;49.61;100224.91;5568099;32;33720;-58
2022/04/21 06:49:33;;;;;;;42.80;25.95;;;;;;;10.82;50.55;100225.16;5568016;32;33803;-58
2022/04/21 06:52:37;;;;;;;36.67;25.80;;;;;;;10.98;50.23;100225.81;5567655;32;33433;-58
2022/04/21 06:55:39;;;;;;;34.85;26.87;;;;;;;11.16;51.04;100222.38;5568065;32;33465;-58
2022/04/21 06:58:41;;;;;;;38.55;27.20;;;;;;;11.45;50.34;100224.94;5567657;32;34368;-58
2022/04/21 07:01:46;;;;;;;35.33;28.30;;;;;;;11.58;50.13;100215.34;5568465;32;33616;-59
2022/04/21 07:04:53;;;;;;;34.40;26.65;;;;;;;11.56;49.86;100228.28;5567711;32;33194;-59
2022/04/21 07:07:57;;;;;;;39.33;28.08;;;;;;;11.65;51.55;100220.34;5567755;32;33590;-59
2022/04/21 07:10:59;;;;;;;35.67;27.42;;;;;;;11.92;48.16;100208.97;5566025;32;33698;-59
2022/04/21 07:14:02;;;;;;;41.13;30.45;;;;;;;11.86;49.46;100215.53;5567863;32;34102;-59
2022/04/21 07:17:04;;;;;;;37.95;28.17;;;;;;;11.92;49.27;100214.34;5568131;32;33735;-59
2022/04/21 07:20:09;;;;;;;35.60;27.42;;;;;;;12.22;46.95;100213.84;5567450;32;34230;-59
2022/04/21 07:23:11;;;;;;;34.88;27.00;;;;;;;12.36;47.85;100221.94;5567464;32;33564;-59
2022/04/21 07:26:13;;;;;;;31.08;26.40;;;;;;;12.50;46.45;100218.50;5568104;32;34197;-59
2022/04/21 07:29:15;;;;;;;39.60;28.33;;;;;;;12.67;47.26;100207.94;5567551;32;34367;-59
2022/04/21 07:32:18;;;;;;;40.05;28.25;;;;;;;12.51;47.60;100215.50;5566736;32;34276;-59
2022/04/21 07:35:20;;;;;;;36.13;28.17;;;;;;;12.55;47.57;100216.50;5548211;32;33141;-59
2022/04/21 07:38:22;;;;;;;36.15;28.48;;;;;;;12.70;46.50;100212.72;5548568;32;34358;-59
2022/04/21 07:41:25;;;;;;;37.15;29.73;;;;;;;12.83;46.81;100208.44;5554777;32;34212;-59
2022/04/21 07:44:28;;;;;;;32.15;26.52;;;;;;;12.83;48.43;100211.16;5567879;32;33608;-59
2022/04/21 07:47:31;;;;;;;32.53;28.38;;;;;;;13.04;46.98;100209.63;5567526;32;34281;-59
2022/04/21 07:50:34;;;;;;;43.03;28.73;;;;;;;13.19;45.79;100205.03;5567761;32;34283;-59
2022/04/21 07:53:54;;;;;;;35.03;27.10;;;;;;;13.25;47.23;100199.28;5567519;32;33698;-59
2022/04/21 07:56:56;;;;;;;31.58;26.05;;;;;;;13.43;45.83;100199.44;5567145;32;33558;-59
2022/04/21 07:59:59;;;;;;;28.45;23.95;;;;;;;13.47;45.34;100203.91;5567380;32;34012;-59
2022/04/21 08:03:02;;;;;;;29.42;22.10;;;;;;;13.16;45.46;100199.16;5566991;32;33716;-58
2022/04/21 08:06:05;;;;;;;603.40;82.07;;;;;;;13.24;46.68;100197.66;5555995;32;34323;-59
2022/04/21 08:09:07;;;;;;;27.08;16.83;;;;;;;13.37;45.74;100201.44;5549669;32;34305;-59
2022/04/21 08:12:10;;;;;;;17.27;12.88;;;;;;;13.42;44.67;100195.16;5566078;32;33988;-59
2022/04/21 08:15:20;;;;;;;16.52;12.60;;;;;;;13.59;41.57;100187.22;5558877;32;33464;-59
2022/04/21 08:18:23;;;;;;;20.05;10.85;;;;;;;13.56;43.08;100185.91;5548160;32;33283;-58
2022/04/21 08:21:25;;;;;;;8.52;6.75;;;;;;;13.63;41.33;100180.13;5555150;32;33567;-58
2022/04/21 08:35:29;;;;;;;7.18;6.07;;;;;;;13.90;39.13;100184.59;5554589;32;33798;-59
2022/04/21 08:38:32;;;;;;;361.75;40.17;;;;;;;14.00;39.60;100178.94;5564998;32;33601;-58
2022/04/21 08:41:34;;;;;;;13.90;6.60;;;;;;;14.15;38.84;100185.87;5557535;32;34347;-58
2022/04/21 08:44:41;;;;;;;23.65;7.75;;;;;;;14.07;37.76;100183.91;5553693;31;34556;-59
2022/04/21 08:47:46;;;;;;;15.23;5.85;;;;;;;14.13;41.71;100185.38;5567213;32;33690;-59
2022/04/21 08:50:49;;;;;;;9.25;5.90;;;;;;;14.30;38.68;100176.56;5566774;32;33766;-59
2022/04/21 08:53:55;;;;;;;12.70;5.95;;;;;;;14.24;37.99;100181.31;5568606;32;33663;-58
2022/04/21 08:56:57;;;;;;;7.78;5.45;;;;;;;14.35;38.78;100189.94;5565989;32;33795;-59
2022/04/21 09:00:00;;;;;;;17.92;6.43;;;;;;;14.40;38.42;100194.38;5563202;32;33301;-59
2022/04/21 09:03:06;;;;;;;9.55;5.70;;;;;;;14.39;39.77;100196.28;5568494;32;33576;-58
2022/04/21 09:06:10;;;;;;;7.83;5.77;;;;;;;14.53;38.53;100196.22;5568452;32;32262;-59
2022/04/21 09:09:14;;;;;;;18.02;5.78;;;;;;;14.44;37.68;100198.88;5566166;32;34068;-58
2022/04/21 09:12:19;;;;;;;11.27;6.65;;;;;;;14.45;38.07;100195.06;5567414;32;33766;-59
2022/04/21 09:15:27;;;;;;;12.30;6.20;;;;;;;14.45;37.71;100188.88;5562772;32;35019;-58
2022/04/21 09:18:36;;;;;;;7.60;5.90;;;;;;;14.61;38.32;100187.38;5561740;32;33779;-59
2022/04/21 09:21:40;;;;;;;8.00;6.53;;;;;;;14.53;37.10;100186.22;5564849;32;33743;-58
2022/04/21 09:24:43;;;;;;;14.23;6.12;;;;;;;14.48;36.36;100194.44;5553262;32;33750;-58
2022/04/21 09:27:49;;;;;;;20.15;7.40;;;;;;;14.60;38.54;100193.06;5554970;32;34328;-58
2022/04/21 09:30:58;;;;;;;40.12;9.40;;;;;;;14.76;38.03;100200.44;5561309;32;34438;-58
2022/04/21 09:34:01;;;;;;;10.30;8.50;;;;;;;14.82;38.96;100193.00;5559053;32;34755;-57
2022/04/21 09:37:05;;;;;;;12.48;6.93;;;;;;;14.84;39.45;100190.81;5565823;32;33199;-59
2022/04/21 09:40:11;;;;;;;10.55;7.43;;;;;;;14.85;37.91;100186.19;5564777;32;34048;-58
2022/04/21 09:43:26;;;;;;;15.38;7.47;;;;;;;15.02;38.75;100191.62;5566944;32;33851;-58
2022/04/21 09:46:28;;;;;;;8.90;6.62;;;;;;;15.06;38.04;100199.91;5555671;32;34374;-59
2022/04/21 09:49:36;;;;;;;8.10;6.32;;;;;;;15.11;37.75;100186.25;5567205;32;33837;-59
2022/04/21 09:52:45;;;;;;;9.15;6.28;;;;;;;15.19;37.11;100186.25;5567095;32;33619;-58
2022/04/21 09:55:49;;;;;;;16.65;6.10;;;;;;;15.24;35.26;100185.31;5566719;32;33682;-59
2022/04/21 09:58:52;;;;;;;6.78;5.93;;;;;;;15.20;36.69;100185.16;5552431;32;33274;-59
2022/04/21 10:01:55;;;;;;;6.80;5.18;;;;;;;15.17;35.57;100177.69;5567678;32;33919;-58
2022/04/21 10:04:58;;;;;;;10.50;5.87;;;;;;;15.23;36.22;100167.53;5566456;32;33275;-58
2022/04/21 10:08:03;;;;;;;7.55;5.00;;;;;;;15.23;36.32;100173.75;5550297;32;33613;-58
2022/04/21 10:11:08;;;;;;;6.30;5.50;;;;;;;15.18;35.42;100167.69;5565016;32;33334;-58
2022/04/21 10:14:17;;;;;;;7.82;5.55;;;;;;;15.27;35.11;100166.59;5563301;32;33705;-58
2022/04/21 10:17:21;;;;;;;11.18;6.40;;;;;;;15.28;35.77;100172.78;5563632;32;33692;-59
2022/04/21 10:20:25;;;;;;;5.45;4.82;;;;;;;15.25;35.19;100165.31;5565872;32;33724;-59
2022/04/21 10:23:29;;;;;;;7.72;6.28;;;;;;;15.21;34.54;100161.66;5565324;32;34026;-58
2022/04/21 10:26:43;;;;;;;8.35;5.55;;;;;;;15.18;34.36;100163.06;5567026;32;33685;-59
2022/04/21 10:29:52;;;;;;;6.40;5.10;;;;;;;15.10;33.66;100163.06;5566400;32;33681;-58
2022/04/21 10:33:04;;;;;;;6.22;5.15;;;;;;;15.27;36.02;100169.28;5563650;32;34394;-59
2022/04/21 10:36:06;;;;;;;5.25;4.37;;;;;;;15.32;33.29;100159.44;5564455;32;33237;-59
2022/04/21 10:39:12;;;;;;;6.12;5.03;;;;;;;15.37;34.29;100154.69;5567244;32;34320;-59
2022/04/21 10:42:18;;;;;;;8.25;4.50;;;;;;;15.47;34.82;100150.88;5565626;32;33692;-59
2022/04/21 10:45:31;;;;;;;9.07;5.70;;;;;;;15.54;35.36;100153.09;5558298;32;32022;-59
2022/04/21 10:48:44;;;;;;;6.40;5.40;;;;;;;15.73;35.00;100140.88;5562035;32;33332;-58
2022/04/21 10:57:12;;;;;;;6.72;5.75;;;;;;;15.69;35.07;100142.63;5565506;32;33638;-59
2022/04/21 10:58:35;;;;;;;10.15;5.75;;;;;;;15.42;34.90;100129.41;5566330;32;33802;-58
2022/04/21 11:01:37;;;;;;;11.07;5.50;;;;;;;15.39;34.75;100125.44;5553047;32;32336;-59
2022/04/21 11:04:40;;;;;;;5.93;5.32;;;;;;;15.44;34.88;100133.38;5561951;31;33796;-59
2022/04/21 11:07:51;;;;;;;8.23;5.75;;;;;;;15.48;33.25;100126.22;5559423;32;32279;-59
2022/04/21 11:10:54;;;;;;;5.72;4.75;;;;;;;15.41;32.92;100123.22;5561308;32;34049;-59
2022/04/21 11:14:04;;;;;;;8.30;5.68;;;;;;;15.50;33.84;100128.63;5561488;32;34437;-58
2022/04/21 11:17:07;;;;;;;6.85;6.10;;;;;;;15.48;34.35;100125.44;5565903;32;34186;-59
2022/04/21 11:20:25;;;;;;;8.60;6.82;;;;;;;15.42;34.91;100124.00;5556999;32;34462;-59
2022/04/21 11:23:29;;;;;;;7.87;6.15;;;;;;;15.40;35.54;100121.63;5555649;32;33252;-59
2022/04/21 11:26:31;;;;;;;8.35;5.97;;;;;;;15.39;35.45;100117.31;5559061;32;33569;-59
2022/04/21 11:29:34;;;;;;;7.15;6.12;;;;;;;15.45;34.49;100117.97;5562851;32;32286;-58
2022/04/21 11:32:37;;;;;;;8.60;6.40;;;;;;;15.42;33.61;100121.31;5558918;32;33416;-59
2022/04/21 11:35:39;;;;;;;8.25;5.87;;;;;;;15.45;34.08;100118.75;5567949;32;34346;-59
2022/04/21 11:38:47;;;;;;;6.37;5.50;;;;;;;15.36;33.24;100112.56;5566004;32;34430;-59
2022/04/21 11:41:49;;;;;;;10.20;6.93;;;;;;;15.60;35.42;100112.09;5562559;32;33830;-59
2022/04/21 11:44:53;;;;;;;8.00;6.80;;;;;;;15.70;34.41;100105.59;5563545;32;34024;-58
2022/04/21 11:47:56;;;;;;;9.15;6.65;;;;;;;15.75;35.70;100100.00;5553906;32;34421;-59
2022/04/21 11:50:59;;;;;;;8.00;6.10;;;;;;;15.86;36.51;100103.12;5563962;32;33707;-59
2022/04/21 11:54:09;;;;;;;7.75;6.62;;;;;;;15.94;37.37;100105.03;5562833;32;33425;-59
2022/04/21 11:57:12;;;;;;;7.15;5.75;;;;;;;15.98;35.18;100095.94;5563624;32;34400;-59
2022/04/21 12:00:16;;;;;;;7.50;6.40;;;;;;;15.98;35.09;100098.66;5566677;32;33772;-59
2022/04/21 12:06:44;;;;;;;9.43;8.43;;;;;;;16.08;34.68;100088.63;5566633;32;34249;-59
2022/04/21 12:09:53;;;;;;;11.75;8.20;;;;;;;16.14;33.98;100071.88;5566825;32;33955;-59
2022/04/21 12:12:55;;;;;;;10.10;8.98;;;;;;;16.21;35.79;100074.09;5566969;32;34310;-59
2022/04/21 12:15:58;;;;;;;10.30;8.02;;;;;;;16.28;34.79;100074.37;5563200;32;33786;-59
2022/04/21 12:19:10;;;;;;;12.60;7.62;;;;;;;16.25;36.07;100075.00;5550394;32;33765;-59
2022/04/21 12:22:20;;;;;;;6.68;5.78;;;;;;;16.19;35.73;100077.13;5554917;32;33719;-59
2022/04/21 12:25:30;;;;;;;8.75;6.00;;;;;;;16.23;34.97;100079.19;5568283;32;33492;-59
2022/04/21 12:28:46;;;;;;;6.65;5.68;;;;;;;16.28;34.30;100063.53;5567492;31;33590;-59
2022/04/21 12:31:53;;;;;;;9.98;7.87;;;;;;;16.15;33.37;100061.84;5568558;31;34360;-59
2022/04/21 12:35:06;;;;;;;10.27;6.65;;;;;;;16.14;35.92;100069.19;5567272;32;34438;-59
2022/04/21 12:41:29;;;;;;;9.32;8.40;;;;;;;16.37;36.72;100067.00;5562384;32;33603;-58
2022/04/21 12:44:32;;;;;;;11.52;7.62;;;;;;;16.26;34.48;100063.09;5562471;32;33820;-58
2022/04/21 12:47:52;;;;;;;9.75;7.45;;;;;;;16.31;34.27;100068.31;5565007;32;33662;-58
2022/04/21 12:50:59;;;;;;;8.70;6.70;;;;;;;16.29;35.80;100064.34;5569067;31;34327;-59
2022/04/21 12:54:01;;;;;;;8.35;6.97;;;;;;;16.19;34.30;100062.78;5569399;32;33989;-58
2022/04/21 12:57:07;;;;;;;9.18;6.80;;;;;;;16.18;33.65;100058.50;5568746;31;33656;-58
2022/04/21 13:00:11;;;;;;;10.15;6.30;;;;;;;16.17;35.26;100062.34;5569312;32;34401;-59
2022/04/21 13:03:14;;;;;;;8.10;6.18;;;;;;;16.32;35.99;100066.38;5569105;32;33855;-59
2022/04/21 13:06:28;;;;;;;6.90;5.80;;;;;;;16.43;35.46;100063.00;5568899;32;34401;-59
2022/04/21 13:09:31;;;;;;;6.43;5.15;;;;;;;16.52;37.95;100064.84;5568798;31;34910;-59
2022/04/21 13:12:35;;;;;;;10.48;5.53;;;;;;;16.72;43.50;100055.16;5566366;32;34092;-57
2022/04/21 13:15:37;;;;;;;6.85;5.20;;;;;;;16.77;37.41;100055.81;5558616;32;33920;-59
2022/04/21 13:18:40;;;;;;;10.95;6.65;;;;;;;16.68;38.34;100055.81;5560426;32;34453;-58
2022/04/21 13:21:57;;;;;;;9.93;6.65;;;;;;;16.73;35.62;100054.06;5562453;31;33674;-60
2022/04/21 13:24:59;;;;;;;9.05;5.95;;;;;;;16.73;34.64;100048.66;5556438;32;34148;-59
2022/04/21 13:28:01;;;;;;;7.87;5.87;;;;;;;16.74;35.34;100053.72;5565919;32;33842;-59
2022/04/21 13:34:25;;;;;;;6.65;5.60;;;;;;;16.74;33.24;100051.03;5566523;32;33702;-59
2022/04/21 13:37:28;;;;;;;7.35;5.87;;;;;;;16.74;34.55;100069.19;5567259;31;33761;-58
2022/04/21 13:40:30;;;;;;;12.30;5.03;;;;;;;16.71;32.98;100057.09;5565656;32;33813;-59
2022/04/21 13:43:33;;;;;;;8.30;5.03;;;;;;;16.74;37.11;100053.72;5566515;32;33323;-59
2022/04/21 13:46:55;;;;;;;7.97;5.82;;;;;;;16.83;36.75;100056.41;5566389;32;35493;-59
2022/04/21 13:49:58;;;;;;;7.97;5.60;;;;;;;16.84;33.78;100061.47;5565862;32;33843;-59
2022/04/21 13:53:01;;;;;;;15.07;5.72;;;;;;;16.77;33.20;100053.09;5567467;32;33843;-59
2022/04/21 13:56:06;;;;;;;10.45;5.47;;;;;;;16.66;34.02;100054.59;5566363;32;33727;-58
2022/04/21 13:59:11;;;;;;;7.18;5.00;;;;;;;16.68;34.78;100052.31;5561850;32;34335;-59
2022/04/21 14:02:14;;;;;;;10.48;5.37;;;;;;;16.82;35.84;100052.91;5565413;32;33304;-60
2022/04/21 14:05:16;;;;;;;13.95;5.62;;;;;;;16.84;33.82;100052.56;5568738;32;34372;-59
2022/04/21 14:08:19;;;;;;;9.45;4.97;;;;;;;16.83;32.71;100051.78;5566959;32;33662;-59
2022/04/21 14:11:22;;;;;;;13.95;5.37;;;;;;;16.75;33.53;100044.50;5567910;32;33684;-59
2022/04/21 14:14:26;;;;;;;15.55;6.47;;;;;;;16.84;37.48;100058.00;5567753;32;34290;-59
2022/04/21 14:17:29;;;;;;;8.82;6.22;;;;;;;16.88;35.83;100043.44;5567650;32;34423;-59
2022/04/21 14:20:31;;;;;;;11.48;6.12;;;;;;;16.77;34.77;100041.47;5559105;32;32353;-59
2022/04/21 14:23:37;;;;;;;9.45;5.47;;;;;;;16.69;34.34;100043.09;5567437;32;33841;-59
2022/04/21 14:26:39;;;;;;;10.60;6.75;;;;;;;16.67;36.25;100048.84;5557444;32;33641;-59
2022/04/21 14:29:41;;;;;;;18.12;6.50;;;;;;;16.70;34.49;100049.31;5562856;32;33608;-60
2022/04/21 14:32:43;;;;;;;9.15;6.72;;;;;;;16.65;35.33;100048.38;5563378;31;33760;-59
2022/04/21 14:35:47;;;;;;;9.27;5.62;;;;;;;16.60;33.79;100045.88;5566483;32;34001;-59
2022/04/21 14:45:31;;;;;;;8.20;6.12;;;;;;;16.84;35.88;100045.25;5567212;32;34252;-59
2022/04/21 14:48:34;;;;;;;7.90;5.10;;;;;;;16.81;34.75;100045.09;5567933;32;33780;-59
2022/04/21 14:51:37;;;;;;;6.65;5.18;;;;;;;16.94;35.98;100041.34;5562333;32;33727;-59
2022/04/21 14:54:39;;;;;;;5.90;4.78;;;;;;;16.89;34.78;100044.28;5557335;32;33964;-58
2022/04/21 14:57:41;;;;;;;6.10;5.30;;;;;;;16.82;35.05;100043.97;5555884;32;34263;-58
2022/04/21 15:00:44;;;;;;;10.90;4.93;;;;;;;16.78;33.51;100038.44;5562652;32;33350;-59
2022/04/21 15:03:46;;;;;;;7.00;4.75;;;;;;;16.76;33.49;100042.62;5561691;32;33633;-59
2022/04/21 15:06:49;;;;;;;7.85;4.45;;;;;;;16.68;33.80;100031.47;5558446;32;33655;-59
2022/04/21 15:09:51;;;;;;;7.43;4.90;;;;;;;16.75;36.87;100039.09;5564708;32;33621;-59
2022/04/21 15:12:53;;;;;;;6.53;4.50;;;;;;;16.75;34.28;100033.69;5561515;32;33640;-59
2022/04/21 15:15:55;;;;;;;7.93;4.80;;;;;;;16.83;39.32;100032.06;5559467;32;32152;-58
2022/04/21 15:18:58;;;;;;;7.45;5.57;;;;;;;16.86;35.25;100021.34;5555861;32;33768;-59
2022/04/21 15:22:00;;;;;;;8.20;5.03;;;;;;;16.79;33.74;100025.72;5558326;32;33526;-59
2022/04/21 15:25:02;;;;;;;7.07;4.90;;;;;;;16.68;34.13;100017.94;5563223;32;33661;-59
2022/04/21 15:28:05;;;;;;;10.02;5.37;;;;;;;16.70;33.20;100011.41;5567040;32;33774;-58
2022/04/21 15:31:08;;;;;;;9.77;5.45;;;;;;;16.66;33.22;100009.38;5565786;32;33822;-59
2022/04/21 15:34:11;;;;;;;6.07;5.03;;;;;;;16.51;32.52;100011.84;5566804;32;33843;-58
2022/04/21 15:37:13;;;;;;;7.37;4.45;;;;;;;16.52;35.29;99999.91;5559374;32;33952;-59
